»·PEaware :: N2RF KLAS-KSBA

N2RF :: KLAS-KSBA

FLIGHT INFORMATION

Flight Status: Arrived
Operator: Privately registered:
United States
More flights under this callsign
Pilot: Max W. (2591)
Aircraft: AIRBUS A321
(A321)
More flights by this aircraft type
Origin: KLAS McCarran Intl
United States
Destination: KSBA Santa Barbara Mun
United States
More flights between these airports :: More routes between these airports
Route: BOACH8 HEC PITBL1
File this flight plan on PilotEdge
Remarks:
Altitude:
(Current/Filed)
30,000ft
Speed:
(Current/Filed)
450kts
Departed: 04-Jan-21 08:46 PM
Arrived: 04-Jan-21 09:35 PM
Distance/Time
Traveled:
250nm/0:49
Distance/Time
To Go:
Arrived

Flight Plot

Page will automatically refresh every two minutes.

Flight plan parsing failed; only flown route is shown


Map Options




Map Legend


Flown Route
Filed Route
Departure Airport
Arrival Airport
Navaid (VOR, NDB)
Fix

Horizontal Profiles

Position Reports

Time Latitude Longitude Heading Altitude Ground
Speed
04-Jan-21 20:13 36.080435 -115.138786 343 2187ft 0kts
04-Jan-21 20:14 36.080435 -115.138786 343 2187ft 0kts
04-Jan-21 20:15 36.080435 -115.138786 343 2187ft 0kts
04-Jan-21 20:16 36.080435 -115.138786 343 2187ft 0kts
04-Jan-21 20:17 36.080435 -115.138786 343 2187ft 0kts
04-Jan-21 20:18 36.080435 -115.138786 343 2187ft 0kts
04-Jan-21 20:19 36.080435 -115.138786 343 2187ft 0kts
04-Jan-21 20:20 36.080435 -115.138786 343 2187ft 0kts
04-Jan-21 20:21 36.080435 -115.138786 343 2187ft 0kts
04-Jan-21 20:22 36.080435 -115.138786 343 2187ft 0kts
04-Jan-21 20:23 36.080435 -115.138786 343 2187ft 0kts
04-Jan-21 20:24 36.080435 -115.138786 343 2187ft 0kts
04-Jan-21 20:25 36.080435 -115.138786 343 2187ft 0kts
04-Jan-21 20:26 36.080435 -115.138786 343 2187ft 0kts
04-Jan-21 20:27 36.080435 -115.138786 343 2187ft 0kts
04-Jan-21 20:28 36.080435 -115.138786 343 2187ft 0kts
04-Jan-21 20:29 36.080435 -115.138786 343 2187ft 0kts
04-Jan-21 20:30 36.080435 -115.138786 343 2187ft 0kts
04-Jan-21 20:31 36.080435 -115.138786 343 2187ft 0kts
04-Jan-21 20:32 36.080435 -115.138786 343 2187ft 0kts
04-Jan-21 20:33 36.080435 -115.138786 343 2187ft 0kts
04-Jan-21 20:34 36.080435 -115.138786 343 2187ft 0kts
04-Jan-21 20:35 36.080435 -115.138786 343 2187ft 0kts
04-Jan-21 20:36 36.080435 -115.138786 343 2187ft 0kts
04-Jan-21 20:37 36.080435 -115.138786 343 2187ft 0kts
04-Jan-21 20:38 36.080205 -115.138689 329 2187ft 2kts
04-Jan-21 20:39 36.079889 -115.138201 287 2187ft 1kts
04-Jan-21 20:40 36.079885 -115.138188 288 2187ft 0kts
04-Jan-21 20:41 36.078917 -115.139413 215 2187ft 6kts
04-Jan-21 20:42 36.078313 -115.134789 91 2187ft 21kts
04-Jan-21 20:43 36.078408 -115.125852 93 2187ft 27kts
04-Jan-21 20:44 36.076524 -115.121375 232 2187ft 9kts
04-Jan-21 20:45 36.076383 -115.151786 269 2331ft 185kts
04-Jan-21 20:46 36.076463 -115.214921 268 4759ft 196kts
04-Jan-21 20:47 36.044363 -115.268466 198 5768ft 244kts
04-Jan-21 20:48 35.975544 -115.299049 195 7761ft 271kts
04-Jan-21 20:49 35.899165 -115.310381 188 10030ft 281kts
04-Jan-21 20:50 35.814404 -115.310527 178 11247ft 328kts
04-Jan-21 20:51 35.722166 -115.299880 180 13271ft 337kts
04-Jan-21 20:53 35.644049 -115.340229 231 15260ft 314kts
04-Jan-21 20:54 35.584464 -115.421031 230 17082ft 318kts
04-Jan-21 20:55 35.524608 -115.501446 230 18741ft 321kts
04-Jan-21 20:56 35.463410 -115.583336 229 20140ft 328kts
04-Jan-21 20:57 35.407205 -115.658400 229 21280ft 335kts
04-Jan-21 20:58 35.343512 -115.743644 228 22542ft 341kts
04-Jan-21 20:59 35.278426 -115.830227 228 23717ft 348kts
04-Jan-21 21:00 35.210746 -115.920068 228 24487ft 377kts
04-Jan-21 21:01 35.138366 -116.015810 228 26026ft 388kts
04-Jan-21 21:02 35.064104 -116.113735 228 27548ft 397kts
04-Jan-21 21:03 34.988096 -116.213661 228 28972ft 406kts
04-Jan-21 21:04 34.910333 -116.315529 228 30135ft 416kts
04-Jan-21 21:05 34.833352 -116.417096 232 30154ft 425kts
04-Jan-21 21:06 34.784711 -116.547668 256 30183ft 428kts
04-Jan-21 21:07 34.765686 -116.673703 257 30196ft 427kts
04-Jan-21 21:07 34.749599 -116.782378 256 30203ft 427kts
04-Jan-21 21:09 34.724702 -116.948463 256 30215ft 426kts
04-Jan-21 21:10 34.703241 -117.090229 256 30222ft 426kts
04-Jan-21 21:10 34.685180 -117.208596 256 30224ft 427kts
04-Jan-21 21:12 34.659736 -117.373910 256 30224ft 425kts
04-Jan-21 21:12 34.641401 -117.492163 256 30224ft 425kts
04-Jan-21 21:13 34.619349 -117.633373 256 30205ft 424kts
04-Jan-21 21:14 34.597261 -117.774125 256 30205ft 424kts
04-Jan-21 21:15 34.575027 -117.914487 256 30219ft 424kts
04-Jan-21 21:16 34.552534 -118.055069 256 30230ft 423kts
04-Jan-21 21:17 34.529911 -118.195546 256 30230ft 422kts
04-Jan-21 21:18 34.508020 -118.330502 256 30219ft 407kts
04-Jan-21 21:19 34.486451 -118.462389 257 28524ft 395kts
04-Jan-21 21:20 34.464770 -118.594336 258 25568ft 405kts
04-Jan-21 21:21 34.443371 -118.724489 258 24204ft 384kts
04-Jan-21 21:22 34.421951 -118.851817 258 22871ft 381kts
04-Jan-21 21:23 34.400637 -118.975923 259 20910ft 373kts
04-Jan-21 21:24 34.379855 -119.096567 261 17841ft 362kts
04-Jan-21 21:25 34.360258 -119.213491 262 14271ft 343kts
04-Jan-21 21:26 34.341730 -119.323220 262 10833ft 327kts
04-Jan-21 21:27 34.324752 -119.422694 263 9386ft 276kts
04-Jan-21 21:28 34.310648 -119.512005 273 7321ft 264kts
04-Jan-21 21:29 34.334925 -119.591059 299 5067ft 248kts
04-Jan-21 21:30 34.363720 -119.662929 298 3613ft 211kts
04-Jan-21 21:31 34.392715 -119.711704 321 2310ft 166kts
04-Jan-21 21:32 34.415889 -119.757098 286 1396ft 165kts
04-Jan-21 21:33 34.426412 -119.811448 279 578ft 165kts
04-Jan-21 21:34 34.426766 -119.852163 202 22ft 20kts
04-Jan-21 21:35 34.426617 -119.845029 87 22ft 43kts
04-Jan-21 21:36 34.426065 -119.837635 160 22ft 11kts
04-Jan-21 21:37 34.425442 -119.837315 151 22ft 0kts
04-Jan-21 21:38 34.425442 -119.837315 151 22ft 0kts
04-Jan-21 21:39 34.425442 -119.837315 151 22ft 0kts
04-Jan-21 21:40 34.425442 -119.837315 151 22ft 0kts
04-Jan-21 21:41 34.425442 -119.837315 151 22ft 0kts
04-Jan-21 21:42 34.425442 -119.837315 151 22ft 0kts
04-Jan-21 21:43 34.425442 -119.837315 151 22ft 0kts
04-Jan-21 21:44 34.425442 -119.837315 151 22ft 0kts

Navigation Log

Ident Type
Flight plan parsing failed, navigation log unavailable